createdAt,value
2023-05-06T00:01:20.364Z,4.40
2023-05-06T00:03:48.578Z,4.72
2023-05-06T00:06:15.635Z,4.57
2023-05-06T00:08:42.710Z,4.90
2023-05-06T00:11:09.892Z,4.80
2023-05-06T00:13:38.152Z,4.72
2023-05-06T00:16:05.518Z,4.95
2023-05-06T00:18:32.570Z,4.75
2023-05-06T00:20:59.368Z,5.50
2023-05-06T00:23:26.185Z,5.27
2023-05-06T00:25:54.855Z,4.78
2023-05-06T00:28:22.252Z,4.80
2023-05-06T00:30:49.165Z,4.93
2023-05-06T00:33:16.124Z,4.70
2023-05-06T00:35:43.067Z,4.80
2023-05-06T00:38:12.873Z,4.78
2023-05-06T00:40:40.700Z,4.90
2023-05-06T00:43:07.658Z,4.78
2023-05-06T00:45:35.162Z,4.28
2023-05-06T00:48:04.131Z,4.60
2023-05-06T00:50:33.306Z,4.62
2023-05-06T00:53:01.843Z,4.30
2023-05-06T00:55:28.962Z,4.18
2023-05-06T00:57:56.056Z,4.07
2023-05-06T01:00:23.126Z,4.70
2023-05-06T01:02:50.156Z,4.65
2023-05-06T01:05:19.248Z,4.22
2023-05-06T01:07:55.270Z,4.45
2023-05-06T01:10:34.014Z,4.22
2023-05-06T01:13:12.318Z,3.63
2023-05-06T01:15:45.834Z,3.85
2023-05-06T01:18:22.707Z,3.97
2023-05-06T01:20:52.663Z,4.00
2023-05-06T01:23:20.290Z,4.30
2023-05-06T01:25:47.181Z,4.10
2023-05-06T01:28:14.767Z,3.75
2023-05-06T01:31:05.584Z,4.00
2023-05-06T01:33:35.478Z,3.80
2023-05-06T01:36:12.970Z,4.37
2023-05-06T01:39:12.337Z,3.80
2023-05-06T01:41:41.695Z,4.07
2023-05-06T01:44:10.914Z,4.25
2023-05-06T01:46:37.912Z,4.00
2023-05-06T01:49:11.412Z,4.03
2023-05-06T01:51:39.037Z,3.70
2023-05-06T01:54:06.516Z,3.92
2023-05-06T01:56:33.407Z,4.50
2023-05-06T01:59:00.485Z,4.40
2023-05-06T02:01:27.587Z,4.45
2023-05-06T02:03:54.860Z,3.97
2023-05-06T02:06:21.807Z,4.00
2023-05-06T02:08:49.524Z,4.20
2023-05-06T02:11:16.485Z,4.10
2023-05-06T02:13:43.535Z,3.70
2023-05-06T02:16:10.561Z,3.73
2023-05-06T02:18:37.496Z,4.00
2023-05-06T02:21:05.374Z,3.80
2023-05-06T02:23:32.502Z,3.50
2023-05-06T02:25:59.467Z,3.80
2023-05-06T02:28:26.650Z,4.10
2023-05-06T02:30:57.402Z,3.65
2023-05-06T02:33:25.020Z,3.85
2023-05-06T02:35:51.908Z,4.00
2023-05-06T02:38:19.847Z,4.57
2023-05-06T02:40:47.092Z,3.97
2023-05-06T02:43:13.920Z,3.83
2023-05-06T02:45:41.047Z,4.05
2023-05-06T02:48:07.988Z,4.00
2023-05-06T02:50:36.245Z,4.22
2023-05-06T02:53:03.587Z,4.13
2023-05-06T02:55:30.706Z,4.00
2023-05-06T02:57:57.567Z,4.30
2023-05-06T03:00:24.414Z,4.07
2023-05-06T03:02:51.879Z,3.83
2023-05-06T03:05:19.026Z,4.17
2023-05-06T03:07:45.837Z,3.85
2023-05-06T03:10:12.818Z,3.90
2023-05-06T03:12:39.966Z,3.90
2023-05-06T03:15:07.356Z,3.83
2023-05-06T03:17:34.388Z,3.77
2023-05-06T03:20:01.334Z,3.72
2023-05-06T03:22:28.245Z,4.30
2023-05-06T03:24:55.045Z,3.95
2023-05-06T03:27:21.909Z,3.75
2023-05-06T03:29:48.794Z,3.70
2023-05-06T03:32:16.054Z,3.87
2023-05-06T03:34:43.008Z,4.10
2023-05-06T03:37:09.987Z,3.97
2023-05-06T03:39:36.963Z,3.70
2023-05-06T03:42:04.066Z,4.10
2023-05-06T03:44:31.169Z,3.83
2023-05-06T03:46:58.011Z,4.12
2023-05-06T03:49:24.924Z,4.45
2023-05-06T03:51:53.384Z,4.90
2023-05-06T03:54:20.255Z,4.60
2023-05-06T03:56:47.078Z,4.70
2023-05-06T03:59:14.182Z,4.93
2023-05-06T04:01:42.146Z,4.60
2023-05-06T04:04:09.220Z,4.57
2023-05-06T04:06:36.122Z,4.90
2023-05-06T04:09:04.391Z,4.65
2023-05-06T04:11:31.773Z,4.20
2023-05-06T04:13:58.718Z,4.55
2023-05-06T04:16:25.604Z,3.90
2023-05-06T04:18:52.815Z,4.30
2023-05-06T04:21:19.775Z,4.75
2023-05-06T04:23:46.635Z,6.15
2023-05-06T04:26:13.480Z,4.97
2023-05-06T04:28:40.925Z,4.70
2023-05-06T04:31:09.001Z,4.97
2023-05-06T04:33:35.952Z,5.28
2023-05-06T04:36:03.536Z,5.07
2023-05-06T04:38:32.159Z,4.82
2023-05-06T04:40:59.654Z,4.32
2023-05-06T04:43:29.874Z,4.70
2023-05-06T04:45:57.388Z,4.55
2023-05-06T04:48:24.360Z,4.00
2023-05-06T04:50:51.367Z,4.50
2023-05-06T04:53:18.356Z,4.62
2023-05-06T04:55:45.187Z,4.70
2023-05-06T04:58:12.123Z,4.70
2023-05-06T05:00:39.570Z,4.90
2023-05-06T05:03:06.810Z,4.50
2023-05-06T05:05:36.318Z,4.87
2023-05-06T05:08:03.363Z,4.87
2023-05-06T05:10:30.379Z,4.65
2023-05-06T05:12:58.377Z,4.60
2023-05-06T05:15:25.338Z,4.45
2023-05-06T05:17:52.230Z,4.25
2023-05-06T05:20:19.107Z,3.93
2023-05-06T05:22:46.444Z,4.10
2023-05-06T05:25:13.615Z,4.10
2023-05-06T05:27:42.299Z,4.55
2023-05-06T05:30:09.701Z,4.60
2023-05-06T05:32:36.828Z,4.40
2023-05-06T05:35:04.058Z,4.50
2023-05-06T05:37:31.269Z,4.62
2023-05-06T05:39:58.464Z,4.80
2023-05-06T05:42:25.454Z,4.57
2023-05-06T05:44:52.709Z,5.03
2023-05-06T05:47:19.490Z,4.62
2023-05-06T05:49:46.300Z,4.30
2023-05-06T05:52:13.190Z,4.43
2023-05-06T05:54:40.088Z,4.50
2023-05-06T05:57:06.954Z,4.67
2023-05-06T05:59:34.022Z,4.60
2023-05-06T06:02:01.100Z,4.70
2023-05-06T06:04:28.150Z,4.65
2023-05-06T06:06:58.137Z,5.20
2023-05-06T06:09:25.025Z,7.07
2023-05-06T06:11:52.346Z,8.75
2023-05-06T06:14:19.267Z,8.82
2023-05-06T06:16:46.403Z,7.95
2023-05-06T06:19:14.872Z,8.77
2023-05-06T06:21:41.855Z,8.57
2023-05-06T06:24:08.978Z,8.63
2023-05-06T06:26:35.873Z,9.13
2023-05-06T06:29:02.929Z,8.45
2023-05-06T06:31:29.896Z,7.75
2023-05-06T06:33:56.909Z,7.57
2023-05-06T06:36:23.751Z,6.32
2023-05-06T06:38:50.642Z,6.47
2023-05-06T06:41:17.666Z,5.85
2023-05-06T06:43:44.704Z,5.97
2023-05-06T06:46:11.637Z,4.80
2023-05-06T06:48:38.978Z,4.45
2023-05-06T06:51:06.111Z,4.30
2023-05-06T06:53:33.208Z,4.07
2023-05-06T06:56:00.187Z,4.55
2023-05-06T06:58:27.704Z,5.13
2023-05-06T07:00:54.625Z,3.85
2023-05-06T07:03:21.528Z,4.05
2023-05-06T07:05:48.381Z,4.10
2023-05-06T07:08:17.289Z,4.12
2023-05-06T07:10:44.422Z,4.20
2023-05-06T07:13:11.671Z,3.58
2023-05-06T07:15:38.772Z,3.67
2023-05-06T07:18:06.054Z,3.70
2023-05-06T07:20:33.083Z,3.60
2023-05-06T07:22:59.973Z,3.97
2023-05-06T07:25:28.092Z,3.50
2023-05-06T07:27:55.350Z,3.50
2023-05-06T07:30:23.340Z,3.47
2023-05-06T07:32:50.817Z,4.05
2023-05-06T07:35:18.199Z,3.90
2023-05-06T07:37:48.305Z,3.83
2023-05-06T07:40:15.324Z,3.30
2023-05-06T07:42:43.087Z,3.10
2023-05-06T07:45:11.197Z,3.33
2023-05-06T07:47:38.663Z,3.50
2023-05-06T07:50:06.958Z,3.20
2023-05-06T07:52:34.223Z,3.22
2023-05-06T07:55:01.900Z,3.45
2023-05-06T07:57:29.092Z,3.40
2023-05-06T07:59:56.112Z,3.30
2023-05-06T08:02:23.072Z,3.30
2023-05-06T08:04:51.617Z,3.33
2023-05-06T08:07:19.377Z,3.15
2023-05-06T08:09:46.506Z,3.17
2023-05-06T08:12:13.746Z,3.27
2023-05-06T08:14:41.157Z,3.00
2023-05-06T08:17:07.981Z,3.35
2023-05-06T08:19:35.005Z,3.30
2023-05-06T08:22:02.155Z,3.08
2023-05-06T08:24:29.646Z,3.53
2023-05-06T08:26:56.554Z,3.62
2023-05-06T08:29:23.411Z,3.78
2023-05-06T08:31:50.648Z,3.92
2023-05-06T08:34:19.257Z,3.55
2023-05-06T08:36:46.101Z,3.23
2023-05-06T08:39:14.606Z,3.33
2023-05-06T08:41:47.091Z,3.25
2023-05-06T08:44:17.749Z,3.50
2023-05-06T08:46:46.198Z,3.55
2023-05-06T08:49:13.071Z,4.03
2023-05-06T08:51:43.747Z,3.35
2023-05-06T08:54:13.794Z,3.60
2023-05-06T08:56:45.272Z,3.55
2023-05-06T08:59:13.848Z,3.55
2023-05-06T09:01:41.418Z,4.03
2023-05-06T09:04:09.160Z,3.22
2023-05-06T09:06:36.175Z,3.37
2023-05-06T09:09:03.516Z,3.47
2023-05-06T09:11:31.139Z,3.25
2023-05-06T09:14:17.726Z,3.00
2023-05-06T09:16:46.748Z,3.65
2023-05-06T09:19:14.938Z,3.50
2023-05-06T09:21:44.125Z,3.80
2023-05-06T09:24:12.977Z,3.42
2023-05-06T09:26:42.639Z,3.30
2023-05-06T09:29:09.991Z,3.58
2023-05-06T09:31:42.671Z,4.12
2023-05-06T09:34:10.309Z,3.35
2023-05-06T09:36:37.481Z,3.22
2023-05-06T09:39:05.532Z,4.00
2023-05-06T09:41:33.409Z,4.28
2023-05-06T09:44:01.453Z,3.78
2023-05-06T09:46:29.341Z,3.83
2023-05-06T09:48:57.619Z,3.35
2023-05-06T09:51:27.901Z,2.87
2023-05-06T09:53:56.538Z,2.53
2023-05-06T09:56:23.866Z,3.03
2023-05-06T09:58:52.706Z,2.90
2023-05-06T10:01:32.722Z,2.67
2023-05-06T10:04:09.502Z,2.70
2023-05-06T10:06:39.810Z,2.30
2023-05-06T10:09:10.616Z,2.10
2023-05-06T10:11:38.823Z,2.40
2023-05-06T10:14:07.285Z,2.47
2023-05-06T10:16:36.355Z,1.90
2023-05-06T10:19:06.781Z,2.62
2023-05-06T10:21:39.134Z,2.30
2023-05-06T10:24:09.166Z,2.12
2023-05-06T10:26:37.615Z,2.45
2023-05-06T10:29:10.044Z,2.70
2023-05-06T10:31:48.344Z,2.75
2023-05-06T10:34:18.846Z,2.17
2023-05-06T10:36:46.079Z,2.00
2023-05-06T10:39:14.359Z,1.90
2023-05-06T10:41:41.644Z,1.90
2023-05-06T10:44:10.152Z,1.85
2023-05-06T10:47:03.397Z,2.20
2023-05-06T10:49:30.312Z,2.47
2023-05-06T10:52:12.092Z,2.60
2023-05-06T10:54:50.933Z,2.80
2023-05-06T10:57:18.103Z,1.92
2023-05-06T10:59:47.047Z,2.75
2023-05-06T11:02:16.849Z,2.10
2023-05-06T11:04:50.560Z,2.28
2023-05-06T11:07:26.759Z,2.03
2023-05-06T11:09:59.247Z,2.00
2023-05-06T11:12:46.263Z,2.33
2023-05-06T11:15:27.016Z,3.22
2023-05-06T11:17:55.946Z,2.47
2023-05-06T11:20:26.560Z,2.20
2023-05-06T11:22:53.718Z,2.37
2023-05-06T11:25:41.321Z,2.60
2023-05-06T11:28:13.663Z,2.35
2023-05-06T11:30:53.619Z,2.40
2023-05-06T11:33:24.561Z,2.70
2023-05-06T11:35:51.433Z,2.87
2023-05-06T11:38:19.002Z,2.50
2023-05-06T11:40:46.180Z,3.25
2023-05-06T11:43:16.693Z,3.00
2023-05-06T11:45:46.546Z,2.60
2023-05-06T11:48:17.867Z,2.70
2023-05-06T11:50:49.347Z,2.95
2023-05-06T11:53:21.485Z,2.70
2023-05-06T11:55:49.861Z,2.90
2023-05-06T11:58:23.556Z,3.17
2023-05-06T12:00:54.362Z,2.70
2023-05-06T12:03:22.230Z,2.80
2023-05-06T12:05:50.456Z,2.90
2023-05-06T12:08:27.245Z,2.28
2023-05-06T12:10:59.462Z,2.80
2023-05-06T12:13:27.967Z,2.70
2023-05-06T12:15:56.191Z,2.47
2023-05-06T12:18:24.095Z,3.08
2023-05-06T12:20:54.222Z,2.70
2023-05-06T12:23:24.931Z,3.83
2023-05-06T12:26:04.130Z,2.10
2023-05-06T12:28:33.126Z,2.40
2023-05-06T12:31:02.032Z,2.65
2023-05-06T12:33:44.121Z,2.50
2023-05-06T12:36:11.216Z,3.10
2023-05-06T12:38:38.266Z,2.65
2023-05-06T12:41:07.141Z,2.65
2023-05-06T12:43:33.992Z,2.40
2023-05-06T12:46:05.761Z,2.50
2023-05-06T12:48:32.864Z,2.70
2023-05-06T12:50:59.977Z,2.92
2023-05-06T12:53:35.543Z,2.83
2023-05-06T12:56:02.410Z,2.80
2023-05-06T12:58:29.643Z,2.70
2023-05-06T13:00:56.518Z,3.53
2023-05-06T13:03:23.545Z,2.72
2023-05-06T13:05:51.946Z,2.60
2023-05-06T13:08:19.022Z,3.00
2023-05-06T13:10:45.935Z,3.10
2023-05-06T13:13:12.937Z,2.70
2023-05-06T13:15:39.961Z,2.83
2023-05-06T13:18:07.181Z,2.78
2023-05-06T13:20:34.108Z,2.85
2023-05-06T13:23:01.059Z,2.90
2023-05-06T13:25:27.850Z,3.10
2023-05-06T13:27:54.721Z,3.05
2023-05-06T13:30:21.841Z,2.60
2023-05-06T13:32:48.887Z,2.97
2023-05-06T13:35:15.828Z,3.10
2023-05-06T13:37:42.706Z,2.70
2023-05-06T13:40:10.367Z,2.20
2023-05-06T13:42:38.704Z,2.47
2023-05-06T13:45:06.590Z,2.47
2023-05-06T13:47:33.518Z,2.50
2023-05-06T13:50:00.909Z,2.50
2023-05-06T13:52:28.048Z,2.60
2023-05-06T13:54:55.328Z,3.03
2023-05-06T13:57:24.447Z,2.80
2023-05-06T13:59:51.860Z,2.55
2023-05-06T14:02:18.842Z,2.80
2023-05-06T14:04:45.770Z,2.65
2023-05-06T14:07:12.618Z,3.00
2023-05-06T14:09:39.546Z,2.97
2023-05-06T14:12:06.475Z,3.03
2023-05-06T14:14:33.578Z,3.80
2023-05-06T14:17:00.428Z,3.53
2023-05-06T14:19:27.308Z,5.30
2023-05-06T14:21:54.310Z,4.07
2023-05-06T14:24:21.287Z,4.53
2023-05-06T14:26:48.174Z,4.10
2023-05-06T14:29:15.560Z,4.32
2023-05-06T14:31:42.704Z,5.93
2023-05-06T14:34:09.609Z,4.62
2023-05-06T14:36:36.493Z,5.32
2023-05-06T14:39:03.545Z,6.17
2023-05-06T14:41:35.498Z,5.78
2023-05-06T14:44:02.594Z,5.55
2023-05-06T14:46:29.775Z,6.20
2023-05-06T14:48:57.449Z,5.47
2023-05-06T14:51:24.322Z,5.43
2023-05-06T14:53:51.231Z,5.87
2023-05-06T14:56:18.199Z,5.45
2023-05-06T14:58:46.203Z,5.20
2023-05-06T15:01:13.700Z,5.35
2023-05-06T15:03:40.741Z,5.73
2023-05-06T15:06:07.977Z,5.90
2023-05-06T15:08:34.927Z,5.32
2023-05-06T15:11:04.256Z,5.40
2023-05-06T15:13:31.411Z,5.20
2023-05-06T15:15:58.418Z,5.90
2023-05-06T15:18:25.680Z,5.62
2023-05-06T15:20:55.146Z,5.85
2023-05-06T15:23:22.445Z,5.60
2023-05-06T15:25:49.346Z,5.22
2023-05-06T15:28:16.461Z,5.03
2023-05-06T15:30:43.493Z,5.22
2023-05-06T15:33:10.696Z,5.15
2023-05-06T15:35:37.560Z,4.75
2023-05-06T15:38:04.459Z,4.43
2023-05-06T15:40:31.504Z,4.63
2023-05-06T15:42:58.573Z,4.25
2023-05-06T15:45:26.050Z,4.53
2023-05-06T15:47:54.232Z,5.00
2023-05-06T15:50:32.024Z,4.65
2023-05-06T15:53:01.302Z,4.87
2023-05-06T15:55:28.335Z,4.75
2023-05-06T15:57:55.186Z,4.87
2023-05-06T16:00:22.335Z,4.43
2023-05-06T16:02:49.440Z,4.47
2023-05-06T16:05:16.754Z,4.10
2023-05-06T16:07:43.719Z,4.03
2023-05-06T16:10:11.024Z,4.15
2023-05-06T16:12:41.031Z,4.60
2023-05-06T16:15:08.490Z,3.70
2023-05-06T16:17:37.842Z,3.80
2023-05-06T16:20:05.645Z,4.07
2023-05-06T16:22:32.700Z,4.03
2023-05-06T16:24:59.528Z,4.10
2023-05-06T16:27:28.336Z,4.70
2023-05-06T16:29:55.645Z,4.20
2023-05-06T16:32:23.701Z,4.43
2023-05-06T16:34:50.822Z,4.03
2023-05-06T16:37:17.715Z,4.32
2023-05-06T16:39:44.664Z,4.80
2023-05-06T16:42:11.535Z,4.17
2023-05-06T16:44:38.314Z,4.32
2023-05-06T16:47:05.336Z,4.72
2023-05-06T16:49:33.635Z,4.75
2023-05-06T16:52:00.882Z,4.40
2023-05-06T16:54:28.134Z,5.00
2023-05-06T16:56:55.173Z,4.50
2023-05-06T16:59:22.591Z,4.87
2023-05-06T17:01:50.408Z,4.97
2023-05-06T17:04:17.691Z,5.22
2023-05-06T17:06:44.525Z,5.00
2023-05-06T17:09:11.402Z,5.28
2023-05-06T17:11:38.372Z,5.40
2023-05-06T17:14:05.809Z,5.25
2023-05-06T17:16:32.739Z,5.20
2023-05-06T17:18:59.643Z,4.70
2023-05-06T17:21:27.956Z,5.87
2023-05-06T17:23:55.118Z,6.03
2023-05-06T17:26:22.611Z,5.82
2023-05-06T17:28:50.991Z,5.90
2023-05-06T17:31:18.817Z,5.67
2023-05-06T17:33:46.069Z,5.90
2023-05-06T17:36:13.880Z,6.05
2023-05-06T17:38:40.857Z,7.00
2023-05-06T17:41:07.744Z,8.80
2023-05-06T17:43:34.778Z,8.57
2023-05-06T17:46:01.762Z,7.47
2023-05-06T17:48:28.774Z,7.90
2023-05-06T17:51:02.978Z,7.35
2023-05-06T17:53:32.361Z,7.15
2023-05-06T17:55:59.259Z,6.83
2023-05-06T17:58:26.188Z,6.97
2023-05-06T18:00:53.108Z,7.00
2023-05-06T18:03:20.058Z,6.30
2023-05-06T18:05:47.168Z,6.97
2023-05-06T18:08:14.358Z,6.80
2023-05-06T18:10:41.620Z,7.78
2023-05-06T18:13:08.974Z,7.15
2023-05-06T18:15:35.873Z,7.22
2023-05-06T18:18:03.088Z,7.53
2023-05-06T18:20:30.184Z,8.00
2023-05-06T18:22:58.654Z,7.93
2023-05-06T18:25:26.068Z,8.52
2023-05-06T18:27:53.111Z,8.32
2023-05-06T18:30:19.999Z,8.55
2023-05-06T18:32:48.241Z,7.97
2023-05-06T18:35:17.108Z,9.07
2023-05-06T18:37:44.010Z,9.15
2023-05-06T18:40:11.425Z,8.23
2023-05-06T18:42:38.327Z,9.15
2023-05-06T18:45:07.045Z,8.37
2023-05-06T18:47:34.167Z,9.02
2023-05-06T18:50:01.198Z,8.45
2023-05-06T18:52:28.148Z,8.77
2023-05-06T18:54:55.022Z,9.75
2023-05-06T18:57:21.992Z,9.40
2023-05-06T18:59:48.854Z,9.02
2023-05-06T19:02:15.838Z,9.45
2023-05-06T19:04:43.872Z,8.88
2023-05-06T19:07:11.249Z,8.93
2023-05-06T19:09:38.644Z,8.60
2023-05-06T19:12:05.718Z,9.35
2023-05-06T19:14:34.649Z,9.13
2023-05-06T19:17:03.767Z,9.50
2023-05-06T19:19:31.321Z,9.80
2023-05-06T19:21:59.123Z,8.87
2023-05-06T19:24:26.348Z,9.07
2023-05-06T19:26:53.344Z,9.88
2023-05-06T19:29:20.319Z,9.43
2023-05-06T19:31:47.626Z,9.02
2023-05-06T19:34:14.561Z,10.47
2023-05-06T19:36:47.714Z,11.88
2023-05-06T19:39:14.591Z,12.77
2023-05-06T19:41:42.011Z,10.70
2023-05-06T19:44:08.883Z,10.73
2023-05-06T19:46:36.083Z,9.90
2023-05-06T19:49:03.098Z,10.18
2023-05-06T19:51:30.253Z,9.52
2023-05-06T19:53:57.120Z,10.32
2023-05-06T19:56:24.097Z,10.18
2023-05-06T19:58:53.805Z,10.93
2023-05-06T20:01:23.926Z,10.85
2023-05-06T20:03:51.271Z,10.02
2023-05-06T20:06:18.254Z,9.70
2023-05-06T20:08:45.211Z,9.80
2023-05-06T20:11:12.351Z,9.80
2023-05-06T20:13:39.444Z,9.93
2023-05-06T20:16:06.840Z,10.25
2023-05-06T20:18:33.762Z,9.77
2023-05-06T20:21:00.998Z,9.55
2023-05-06T20:23:27.949Z,9.80
2023-05-06T20:25:54.966Z,9.13
2023-05-06T20:28:21.910Z,9.30
2023-05-06T20:30:48.840Z,9.50
2023-05-06T20:33:15.802Z,10.70
2023-05-06T20:35:42.736Z,12.63
2023-05-06T20:38:10.956Z,13.07
2023-05-06T20:40:37.874Z,11.73
2023-05-06T20:43:04.742Z,11.05
2023-05-06T20:45:31.716Z,12.10
2023-05-06T20:47:58.917Z,11.20
2023-05-06T20:50:28.584Z,12.13
2023-05-06T20:52:55.752Z,11.40
2023-05-06T20:55:26.041Z,9.60
2023-05-06T20:57:53.165Z,9.95
2023-05-06T21:00:20.620Z,9.73
2023-05-06T21:02:47.698Z,9.77
2023-05-06T21:05:14.819Z,10.70
2023-05-06T21:07:41.928Z,9.75
2023-05-06T21:10:09.920Z,9.07
2023-05-06T21:12:37.136Z,9.07
2023-05-06T21:15:04.889Z,9.00
2023-05-06T21:17:31.938Z,9.30
2023-05-06T21:19:58.959Z,9.73
2023-05-06T21:22:26.046Z,9.85
2023-05-06T21:24:53.040Z,10.10
2023-05-06T21:27:19.904Z,9.82
2023-05-06T21:29:46.856Z,9.75
2023-05-06T21:32:14.018Z,10.45
2023-05-06T21:34:40.938Z,10.68
2023-05-06T21:37:07.813Z,11.47
2023-05-06T21:39:34.714Z,10.45
2023-05-06T21:42:02.042Z,10.88
2023-05-06T21:44:29.022Z,10.57
2023-05-06T21:46:56.345Z,10.75
2023-05-06T21:49:23.479Z,10.83
2023-05-06T21:51:50.538Z,11.60
2023-05-06T21:54:17.473Z,10.75
2023-05-06T21:56:44.979Z,11.57
2023-05-06T21:59:11.943Z,11.35
2023-05-06T22:01:39.082Z,10.90
2023-05-06T22:04:11.485Z,10.80
2023-05-06T22:06:39.447Z,12.00
2023-05-06T22:09:09.439Z,11.48
2023-05-06T22:11:38.323Z,12.10
2023-05-06T22:14:06.784Z,12.07
2023-05-06T22:16:35.598Z,12.75
2023-05-06T22:19:03.951Z,13.18
2023-05-06T22:21:32.033Z,12.27
2023-05-06T22:23:59.741Z,12.37
2023-05-06T22:26:30.193Z,12.30
2023-05-06T22:28:57.105Z,12.82
2023-05-06T22:31:24.775Z,12.27
2023-05-06T22:33:55.422Z,12.60
2023-05-06T22:36:22.540Z,12.65
2023-05-06T22:38:49.753Z,12.33
2023-05-06T22:41:17.728Z,13.15
2023-05-06T22:43:44.815Z,12.18
2023-05-06T22:46:11.657Z,11.55
2023-05-06T22:48:38.661Z,11.70
2023-05-06T22:51:06.481Z,11.80
2023-05-06T22:53:33.381Z,11.70
2023-05-06T22:56:01.072Z,10.73
2023-05-06T22:58:28.458Z,11.35
2023-05-06T23:00:55.593Z,11.35
2023-05-06T23:03:23.272Z,12.33
2023-05-06T23:05:50.151Z,11.65
2023-05-06T23:08:17.221Z,11.52
2023-05-06T23:10:44.230Z,11.32
2023-05-06T23:13:12.115Z,10.93
2023-05-06T23:15:40.039Z,10.97
2023-05-06T23:18:07.385Z,12.07
2023-05-06T23:20:34.434Z,11.65
2023-05-06T23:23:01.719Z,11.70
2023-05-06T23:25:28.649Z,11.88
2023-05-06T23:27:55.630Z,12.13
2023-05-06T23:30:22.643Z,11.82
2023-05-06T23:32:49.689Z,11.52
2023-05-06T23:35:16.669Z,11.00
2023-05-06T23:37:43.542Z,11.30
2023-05-06T23:40:12.655Z,11.70
2023-05-06T23:42:40.113Z,10.90
2023-05-06T23:45:08.129Z,11.10
2023-05-06T23:47:35.284Z,10.77
2023-05-06T23:50:02.145Z,10.80
2023-05-06T23:52:29.159Z,11.83
2023-05-06T23:54:56.531Z,11.38
2023-05-06T23:57:23.418Z,11.07
2023-05-06T23:59:50.761Z,12.60
